sensor_id;sensor_type;location;lat;lon;timestamp;pressure;altitude;pressure_sealevel;temperature;humidity
21086;BME280;34247;50.064;19.970;2023-04-19T00:00:49;99448.63;;;12.89;98.54
21086;BME280;34247;50.064;19.970;2023-04-19T00:01:54;99438.69;;;12.91;98.45
21086;BME280;34247;50.064;19.970;2023-04-19T00:02:58;99447.41;;;12.93;98.14
21086;BME280;34247;50.064;19.970;2023-04-19T00:04:05;99444.88;;;12.92;98.46
21086;BME280;34247;50.064;19.970;2023-04-19T00:05:10;99445.72;;;12.92;98.48
21086;BME280;34247;50.064;19.970;2023-04-19T00:06:16;99445.72;;;12.92;98.20
21086;BME280;34247;50.064;19.970;2023-04-19T00:07:20;99446.44;;;12.94;97.76
21086;BME280;34247;50.064;19.970;2023-04-19T00:08:27;99438.25;;;12.97;97.55
21086;BME280;34247;50.064;19.970;2023-04-19T00:09:30;99439.31;;;12.95;97.76
21086;BME280;34247;50.064;19.970;2023-04-19T00:10:36;99444.63;;;12.95;98.00
21086;BME280;34247;50.064;19.970;2023-04-19T00:11:42;99434.81;;;12.95;97.91
21086;BME280;34247;50.064;19.970;2023-04-19T00:12:49;99436.63;;;12.95;97.77
21086;BME280;34247;50.064;19.970;2023-04-19T00:13:53;99438.47;;;12.94;97.83
21086;BME280;34247;50.064;19.970;2023-04-19T00:14:57;99433.97;;;12.95;97.63
21086;BME280;34247;50.064;19.970;2023-04-19T00:16:01;99433.38;;;12.91;98.20
21086;BME280;34247;50.064;19.970;2023-04-19T00:17:06;99433.50;;;12.90;98.11
21086;BME280;34247;50.064;19.970;2023-04-19T00:18:10;99440.53;;;12.91;98.28
21086;BME280;34247;50.064;19.970;2023-04-19T00:19:13;99435.31;;;12.89;98.28
21086;BME280;34247;50.064;19.970;2023-04-19T00:20:17;99432.00;;;12.86;99.04
21086;BME280;34247;50.064;19.970;2023-04-19T00:21:22;99433.19;;;12.82;99.21
21086;BME280;34247;50.064;19.970;2023-04-19T00:22:27;99426.81;;;12.84;99.15
21086;BME280;34247;50.064;19.970;2023-04-19T00:23:34;99426.56;;;12.87;98.59
21086;BME280;34247;50.064;19.970;2023-04-19T00:24:38;99428.25;;;12.88;98.89
21086;BME280;34247;50.064;19.970;2023-04-19T00:25:45;99435.53;;;12.86;99.30
21086;BME280;34247;50.064;19.970;2023-04-19T00:26:49;99431.69;;;12.90;98.66
21086;BME280;34247;50.064;19.970;2023-04-19T00:27:53;99428.91;;;12.92;98.54
21086;BME280;34247;50.064;19.970;2023-04-19T00:28:57;99422.84;;;12.90;98.69
21086;BME280;34247;50.064;19.970;2023-04-19T00:30:01;99419.66;;;12.85;99.74
21086;BME280;34247;50.064;19.970;2023-04-19T00:31:05;99427.53;;;12.86;99.41
21086;BME280;34247;50.064;19.970;2023-04-19T00:32:09;99423.91;;;12.87;99.74
21086;BME280;34247;50.064;19.970;2023-04-19T00:33:13;99420.25;;;12.88;99.63
21086;BME280;34247;50.064;19.970;2023-04-19T00:34:17;99416.75;;;12.88;99.69
21086;BME280;34247;50.064;19.970;2023-04-19T00:35:21;99423.56;;;12.92;99.20
21086;BME280;34247;50.064;19.970;2023-04-19T00:36:25;99418.00;;;12.95;98.84
21086;BME280;34247;50.064;19.970;2023-04-19T00:37:29;99413.03;;;12.90;99.28
21086;BME280;34247;50.064;19.970;2023-04-19T00:38:33;99414.94;;;12.88;99.60
21086;BME280;34247;50.064;19.970;2023-04-19T00:39:38;99411.28;;;12.78;100.00
21086;BME280;34247;50.064;19.970;2023-04-19T00:40:42;99413.09;;;12.78;100.00
21086;BME280;34247;50.064;19.970;2023-04-19T00:41:45;99411.28;;;12.78;100.00
21086;BME280;34247;50.064;19.970;2023-04-19T00:42:49;99415.75;;;12.78;100.00
21086;BME280;34247;50.064;19.970;2023-04-19T00:43:54;99412.75;;;12.82;100.00
21086;BME280;34247;50.064;19.970;2023-04-19T00:44:58;99410.81;;;12.84;100.00
21086;BME280;34247;50.064;19.970;2023-04-19T00:46:03;99410.69;;;12.86;100.00
21086;BME280;34247;50.064;19.970;2023-04-19T00:47:08;99408.16;;;12.84;100.00
21086;BME280;34247;50.064;19.970;2023-04-19T00:48:13;99407.66;;;12.79;100.00
21086;BME280;34247;50.064;19.970;2023-04-19T00:49:19;99412.97;;;12.79;100.00
21086;BME280;34247;50.064;19.970;2023-04-19T00:50:24;99407.91;;;12.76;100.00
21086;BME280;34247;50.064;19.970;2023-04-19T00:51:28;99405.84;;;12.80;100.00
21086;BME280;34247;50.064;19.970;2023-04-19T00:52:33;99404.78;;;12.82;100.00
21086;BME280;34247;50.064;19.970;2023-04-19T00:53:37;99400.38;;;12.81;100.00
21086;BME280;34247;50.064;19.970;2023-04-19T00:54:44;99403.28;;;12.78;100.00
21086;BME280;34247;50.064;19.970;2023-04-19T00:55:48;99389.25;;;12.76;100.00
21086;BME280;34247;50.064;19.970;2023-04-19T00:56:56;99392.63;;;12.78;100.00
21086;BME280;34247;50.064;19.970;2023-04-19T00:58:01;99397.47;;;12.73;100.00
21086;BME280;34247;50.064;19.970;2023-04-19T00:59:06;99388.50;;;12.74;100.00
21086;BME280;34247;50.064;19.970;2023-04-19T01:00:12;99386.59;;;12.76;100.00
21086;BME280;34247;50.064;19.970;2023-04-19T01:01:16;99385.75;;;12.76;100.00
21086;BME280;34247;50.064;19.970;2023-04-19T01:02:20;99392.50;;;12.80;100.00
21086;BME280;34247;50.064;19.970;2023-04-19T01:03:24;99378.22;;;12.81;100.00
21086;BME280;34247;50.064;19.970;2023-04-19T01:04:30;99383.34;;;12.84;100.00
21086;BME280;34247;50.064;19.970;2023-04-19T01:05:34;99371.84;;;12.83;100.00
21086;BME280;34247;50.064;19.970;2023-04-19T01:06:40;99379.06;;;12.81;100.00
21086;BME280;34247;50.064;19.970;2023-04-19T01:07:44;99380.88;;;12.81;100.00
21086;BME280;34247;50.064;19.970;2023-04-19T01:08:48;99376.31;;;12.83;100.00
21086;BME280;34247;50.064;19.970;2023-04-19T01:09:52;99374.72;;;12.80;100.00
21086;BME280;34247;50.064;19.970;2023-04-19T01:10:56;99380.88;;;12.81;100.00
21086;BME280;34247;50.064;19.970;2023-04-19T01:12:00;99387.91;;;12.82;100.00
21086;BME280;34247;50.064;19.970;2023-04-19T01:13:06;99384.19;;;12.84;100.00
21086;BME280;34247;50.064;19.970;2023-04-19T01:14:10;99385.16;;;12.83;100.00
21086;BME280;34247;50.064;19.970;2023-04-19T01:15:14;99381.53;;;12.84;100.00
21086;BME280;34247;50.064;19.970;2023-04-19T01:16:18;99380.88;;;12.81;100.00
21086;BME280;34247;50.064;19.970;2023-04-19T01:17:23;99382.00;;;12.78;100.00
21086;BME280;34247;50.064;19.970;2023-04-19T01:18:31;99365.88;;;12.80;100.00
21086;BME280;34247;50.064;19.970;2023-04-19T01:19:40;99367.81;;;12.78;100.00
21086;BME280;34247;50.064;19.970;2023-04-19T01:20:44;99374.97;;;12.77;100.00
21086;BME280;34247;50.064;19.970;2023-04-19T01:21:48;99373.88;;;12.80;100.00
21086;BME280;34247;50.064;19.970;2023-04-19T01:22:52;99368.53;;;12.80;100.00
21086;BME280;34247;50.064;19.970;2023-04-19T01:23:56;99369.38;;;12.80;100.00
21086;BME280;34247;50.064;19.970;2023-04-19T01:25:00;99363.59;;;12.75;100.00
21086;BME280;34247;50.064;19.970;2023-04-19T01:26:05;99360.69;;;12.78;100.00
21086;BME280;34247;50.064;19.970;2023-04-19T01:27:12;99364.31;;;12.77;100.00
21086;BME280;34247;50.064;19.970;2023-04-19T01:28:16;99361.53;;;12.79;100.00
21086;BME280;34247;50.064;19.970;2023-04-19T01:29:20;99365.03;;;12.79;100.00
21086;BME280;34247;50.064;19.970;2023-04-19T01:30:24;99358.13;;;12.77;100.00
21086;BME280;34247;50.064;19.970;2023-04-19T01:31:28;99365.03;;;12.79;100.00
21086;BME280;34247;50.064;19.970;2023-04-19T01:32:32;99359.69;;;12.79;100.00
21086;BME280;34247;50.064;19.970;2023-04-19T01:33:36;99363.09;;;12.81;100.00
21086;BME280;34247;50.064;19.970;2023-04-19T01:34:40;99360.56;;;12.80;100.00
21086;BME280;34247;50.064;19.970;2023-04-19T01:35:46;99362.25;;;12.81;100.00
21086;BME280;34247;50.064;19.970;2023-04-19T01:36:50;99362.50;;;12.78;100.00
21086;BME280;34247;50.064;19.970;2023-04-19T01:37:54;99359.69;;;12.79;100.00
21086;BME280;34247;50.064;19.970;2023-04-19T01:38:59;99360.81;;;12.77;100.00
21086;BME280;34247;50.064;19.970;2023-04-19T01:40:06;99359.31;;;12.73;100.00
21086;BME280;34247;50.064;19.970;2023-04-19T01:41:10;99363.06;;;12.70;100.00
21086;BME280;34247;50.064;19.970;2023-04-19T01:42:15;99356.06;;;12.69;100.00
21086;BME280;34247;50.064;19.970;2023-04-19T01:43:19;99353.41;;;12.69;100.00
21086;BME280;34247;50.064;19.970;2023-04-19T01:44:23;99359.44;;;12.71;100.00
21086;BME280;34247;50.064;19.970;2023-04-19T01:45:28;99357.13;;;12.66;100.00
21086;BME280;34247;50.064;19.970;2023-04-19T01:46:32;99355.41;;;12.65;100.00
21086;BME280;34247;50.064;19.970;2023-04-19T01:47:36;99355.41;;;12.65;100.00
21086;BME280;34247;50.064;19.970;2023-04-19T01:48:40;99355.53;;;12.64;100.00
21086;BME280;34247;50.064;19.970;2023-04-19T01:49:44;99351.19;;;12.63;100.00
21086;BME280;34247;50.064;19.970;2023-04-19T01:50:48;99350.09;;;12.65;100.00
21086;BME280;34247;50.064;19.970;2023-04-19T01:51:52;99346.38;;;12.68;100.00
21086;BME280;34247;50.064;19.970;2023-04-19T01:52:57;99346.25;;;12.69;100.00
21086;BME280;34247;50.064;19.970;2023-04-19T01:54:02;99341.03;;;12.68;100.00
21086;BME280;34247;50.064;19.970;2023-04-19T01:55:06;99345.28;;;12.70;100.00
21086;BME280;34247;50.064;19.970;2023-04-19T01:56:10;99338.75;;;12.75;100.00
21086;BME280;34247;50.064;19.970;2023-04-19T01:57:14;99340.81;;;12.71;100.00
21086;BME280;34247;50.064;19.970;2023-04-19T01:58:19;99336.44;;;12.70;100.00
21086;BME280;34247;50.064;19.970;2023-04-19T01:59:23;99339.56;;;12.64;100.00
21086;BME280;34247;50.064;19.970;2023-04-19T02:00:27;99347.09;;;12.70;100.00
21086;BME280;34247;50.064;19.970;2023-04-19T02:01:31;99339.81;;;12.72;100.00
21086;BME280;34247;50.064;19.970;2023-04-19T02:02:37;99338.88;;;12.73;100.00
21086;BME280;34247;50.064;19.970;2023-04-19T02:03:41;99340.69;;;12.73;100.00
21086;BME280;34247;50.064;19.970;2023-04-19T02:04:45;99332.56;;;12.74;100.00
21086;BME280;34247;50.064;19.970;2023-04-19T02:05:49;99329.19;;;12.72;100.00
21086;BME280;34247;50.064;19.970;2023-04-19T02:06:53;99325.91;;;12.68;100.00
21086;BME280;34247;50.064;19.970;2023-04-19T02:07:57;99322.41;;;12.68;100.00
21086;BME280;34247;50.064;19.970;2023-04-19T02:09:00;99327.59;;;12.69;100.00
21086;BME280;34247;50.064;19.970;2023-04-19T02:10:08;99323.59;;;12.64;100.00
21086;BME280;34247;50.064;19.970;2023-04-19T02:11:13;99326.13;;;12.65;100.00
21086;BME280;34247;50.064;19.970;2023-04-19T02:12:18;99325.16;;;12.66;100.00
21086;BME280;34247;50.064;19.970;2023-04-19T02:13:23;99314.03;;;12.61;100.00
21086;BME280;34247;50.064;19.970;2023-04-19T02:14:27;99323.84;;;12.61;100.00
21086;BME280;34247;50.064;19.970;2023-04-19T02:15:31;99317.66;;;12.60;100.00
21086;BME280;34247;50.064;19.970;2023-04-19T02:16:35;99314.63;;;12.54;100.00
21086;BME280;34247;50.064;19.970;2023-04-19T02:17:39;99317.75;;;12.59;100.00
21086;BME280;34247;50.064;19.970;2023-04-19T02:18:43;99312.69;;;12.56;100.00
21086;BME280;34247;50.064;19.970;2023-04-19T02:19:49;99315.94;;;12.59;100.00
21086;BME280;34247;50.064;19.970;2023-04-19T02:20:53;99315.09;;;12.59;100.00
21086;BME280;34247;50.064;19.970;2023-04-19T02:21:57;99314.13;;;12.60;100.00
21086;BME280;34247;50.064;19.970;2023-04-19T02:23:01;99309.03;;;12.57;100.00
21086;BME280;34247;50.064;19.970;2023-04-19T02:24:05;99310.22;;;12.53;100.00
21086;BME280;34247;50.064;19.970;2023-04-19T02:25:09;99309.03;;;12.57;100.00
21086;BME280;34247;50.064;19.970;2023-04-19T02:26:13;99306.50;;;12.55;100.00
21086;BME280;34247;50.064;19.970;2023-04-19T02:27:17;99299.50;;;12.54;100.00
21086;BME280;34247;50.064;19.970;2023-04-19T02:28:21;99304.19;;;12.51;100.00
21086;BME280;34247;50.064;19.970;2023-04-19T02:29:25;99306.63;;;12.54;100.00
21086;BME280;34247;50.064;19.970;2023-04-19T02:30:30;99309.50;;;12.51;100.00
21086;BME280;34247;50.064;19.970;2023-04-19T02:31:35;99308.31;;;12.55;100.00
21086;BME280;34247;50.064;19.970;2023-04-19T02:32:39;99309.16;;;12.55;100.00
21086;BME280;34247;50.064;19.970;2023-04-19T02:33:44;99305.66;;;12.55;100.00
21086;BME280;34247;50.064;19.970;2023-04-19T02:34:50;99299.81;;;12.50;100.00
21086;BME280;34247;50.064;19.970;2023-04-19T02:35:54;99298.34;;;12.46;100.00
21086;BME280;34247;50.064;19.970;2023-04-19T02:36:58;99305.59;;;12.43;100.00
21086;BME280;34247;50.064;19.970;2023-04-19T02:38:03;99299.44;;;12.43;100.00
21086;BME280;34247;50.064;19.970;2023-04-19T02:39:07;99295.09;;;12.42;100.00
21086;BME280;34247;50.064;19.970;2023-04-19T02:40:11;99303.91;;;12.42;100.00
21086;BME280;34247;50.064;19.970;2023-04-19T02:41:15;99301.50;;;12.39;100.00
21086;BME280;34247;50.064;19.970;2023-04-19T02:42:20;99300.16;;;12.34;100.00
21086;BME280;34247;50.064;19.970;2023-04-19T02:43:25;99298.66;;;12.30;100.00
21086;BME280;34247;50.064;19.970;2023-04-19T02:44:28;99303.25;;;12.28;100.00
21086;BME280;34247;50.064;19.970;2023-04-19T02:45:32;99294.44;;;12.27;100.00
21086;BME280;34247;50.064;19.970;2023-04-19T02:46:36;99289.94;;;12.28;100.00
21086;BME280;34247;50.064;19.970;2023-04-19T02:47:40;99295.53;;;12.25;100.00
21086;BME280;34247;50.064;19.970;2023-04-19T02:48:44;99297.94;;;12.28;100.00
21086;BME280;34247;50.064;19.970;2023-04-19T02:49:48;99294.56;;;12.26;100.00
21086;BME280;34247;50.064;19.970;2023-04-19T02:50:53;99291.88;;;12.26;100.00
21086;BME280;34247;50.064;19.970;2023-04-19T02:51:57;99293.72;;;12.25;100.00
21086;BME280;34247;50.064;19.970;2023-04-19T02:53:01;99293.72;;;12.25;100.00
21086;BME280;34247;50.064;19.970;2023-04-19T02:54:05;99295.59;;;12.23;100.00
21086;BME280;34247;50.064;19.970;2023-04-19T02:55:09;99296.38;;;12.25;100.00
21086;BME280;34247;50.064;19.970;2023-04-19T02:56:12;99296.25;;;12.27;100.00
21086;BME280;34247;50.064;19.970;2023-04-19T02:57:16;99293.59;;;12.27;100.00
21086;BME280;34247;50.064;19.970;2023-04-19T02:58:20;99293.78;;;12.24;100.00
21086;BME280;34247;50.064;19.970;2023-04-19T02:59:23;99293.59;;;12.27;100.00
21086;BME280;34247;50.064;19.970;2023-04-19T03:00:28;99292.94;;;12.23;100.00
21086;BME280;34247;50.064;19.970;2023-04-19T03:01:32;99296.69;;;12.21;100.00
21086;BME280;34247;50.064;19.970;2023-04-19T03:02:36;99296.56;;;12.22;100.00
21086;BME280;34247;50.064;19.970;2023-04-19T03:03:40;99298.50;;;12.20;100.00
21086;BME280;34247;50.064;19.970;2023-04-19T03:04:44;99290.88;;;12.15;100.00
21086;BME280;34247;50.064;19.970;2023-04-19T03:05:49;99288.13;;;12.17;100.00
21086;BME280;34247;50.064;19.970;2023-04-19T03:06:53;99287.34;;;12.15;100.00
21086;BME280;34247;50.064;19.970;2023-04-19T03:07:57;99285.91;;;12.11;100.00
21086;BME280;34247;50.064;19.970;2023-04-19T03:09:01;99283.34;;;12.09;100.00
21086;BME280;34247;50.064;19.970;2023-04-19T03:10:06;99289.47;;;11.99;100.00
21086;BME280;34247;50.064;19.970;2023-04-19T03:11:11;99286.47;;;12.03;100.00
21086;BME280;34247;50.064;19.970;2023-04-19T03:12:16;99282.97;;;12.03;100.00
21086;BME280;34247;50.064;19.970;2023-04-19T03:13:20;99283.41;;;11.97;100.00
21086;BME280;34247;50.064;19.970;2023-04-19T03:14:26;99279.78;;;11.98;100.00
21086;BME280;34247;50.064;19.970;2023-04-19T03:15:30;99282.56;;;11.96;100.00
21086;BME280;34247;50.064;19.970;2023-04-19T03:16:35;99280.63;;;11.98;100.00
21086;BME280;34247;50.064;19.970;2023-04-19T03:17:40;99277.00;;;11.99;100.00
21086;BME280;34247;50.064;19.970;2023-04-19T03:18:44;99278.94;;;11.97;100.00
21086;BME280;34247;50.064;19.970;2023-04-19T03:19:51;99272.66;;;11.98;100.00
21086;BME280;34247;50.064;19.970;2023-04-19T03:20:55;99269.88;;;12.00;99.40
21086;BME280;34247;50.064;19.970;2023-04-19T03:21:59;99271.94;;;11.96;99.17
21086;BME280;34247;50.064;19.970;2023-04-19T03:23:04;99273.22;;;11.91;99.82
21086;BME280;34247;50.064;19.970;2023-04-19T03:24:08;99273.22;;;11.91;99.92
21086;BME280;34247;50.064;19.970;2023-04-19T03:25:12;99271.53;;;11.90;99.72
21086;BME280;34247;50.064;19.970;2023-04-19T03:26:16;99267.19;;;11.89;99.40
21086;BME280;34247;50.064;19.970;2023-04-19T03:27:20;99268.63;;;11.93;99.35
21086;BME280;34247;50.064;19.970;2023-04-19T03:28:24;99266.94;;;11.92;99.39
21086;BME280;34247;50.064;19.970;2023-04-19T03:29:28;99263.31;;;11.93;99.08
21086;BME280;34247;50.064;19.970;2023-04-19T03:30:32;99264.78;;;11.97;98.91
21086;BME280;34247;50.064;19.970;2023-04-19T03:31:36;99261.63;;;11.92;98.54
21086;BME280;34247;50.064;19.970;2023-04-19T03:32:40;99257.03;;;11.94;98.48
21086;BME280;34247;50.064;19.970;2023-04-19T03:33:44;99258.97;;;11.92;98.14
21086;BME280;34247;50.064;19.970;2023-04-19T03:34:49;99264.97;;;11.82;98.18
21086;BME280;34247;50.064;19.970;2023-04-19T03:35:53;99259.81;;;11.79;98.35
21086;BME280;34247;50.064;19.970;2023-04-19T03:36:57;99252.81;;;11.78;98.35
21086;BME280;34247;50.064;19.970;2023-04-19T03:38:01;99252.09;;;11.76;98.80
21086;BME280;34247;50.064;19.970;2023-04-19T03:39:05;99250.59;;;11.72;98.61
21086;BME280;34247;50.064;19.970;2023-04-19T03:40:10;99259.09;;;11.77;98.37
21086;BME280;34247;50.064;19.970;2023-04-19T03:41:22;99246.13;;;11.73;98.00
21086;BME280;34247;50.064;19.970;2023-04-19T03:42:27;99250.00;;;11.69;98.23
21086;BME280;34247;50.064;19.970;2023-04-19T03:43:32;99241.16;;;11.68;97.92
21086;BME280;34247;50.064;19.970;2023-04-19T03:44:35;99247.44;;;11.67;97.72
21086;BME280;34247;50.064;19.970;2023-04-19T03:45:39;99242.84;;;11.69;97.60
21086;BME280;34247;50.064;19.970;2023-04-19T03:46:43;99242.84;;;11.69;97.42
21086;BME280;34247;50.064;19.970;2023-04-19T03:47:49;99245.41;;;11.71;97.33
21086;BME280;34247;50.064;19.970;2023-04-19T03:48:54;99243.81;;;11.68;96.78
21086;BME280;34247;50.064;19.970;2023-04-19T03:49:58;99243.09;;;11.66;96.58
21086;BME280;34247;50.064;19.970;2023-04-19T03:51:02;99246.41;;;11.57;97.22
21086;BME280;34247;50.064;19.970;2023-04-19T03:52:06;99241.09;;;11.57;97.39
21086;BME280;34247;50.064;19.970;2023-04-19T03:53:11;99248.94;;;11.58;97.16
21086;BME280;34247;50.064;19.970;2023-04-19T03:54:15;99246.41;;;11.57;97.30
21086;BME280;34247;50.064;19.970;2023-04-19T03:55:20;99247.59;;;11.53;97.02
21086;BME280;34247;50.064;19.970;2023-04-19T03:56:23;99241.31;;;11.54;96.87
21086;BME280;34247;50.064;19.970;2023-04-19T03:57:27;99249.06;;;11.57;96.76
21086;BME280;34247;50.064;19.970;2023-04-19T03:58:32;99238.78;;;11.52;96.74
21086;BME280;34247;50.064;19.970;2023-04-19T03:59:36;99241.78;;;11.48;96.96
21086;BME280;34247;50.064;19.970;2023-04-19T04:00:40;99239.09;;;11.48;97.26
21086;BME280;34247;50.064;19.970;2023-04-19T04:01:45;99238.25;;;11.47;97.29
21086;BME280;34247;50.064;19.970;2023-04-19T04:02:49;99240.41;;;11.42;97.27
21086;BME280;34247;50.064;19.970;2023-04-19T04:03:53;99242.44;;;11.39;97.44
21086;BME280;34247;50.064;19.970;2023-04-19T04:04:57;99233.28;;;11.43;97.15
21086;BME280;34247;50.064;19.970;2023-04-19T04:06:01;99234.34;;;11.40;97.42
21086;BME280;34247;50.064;19.970;2023-04-19T04:07:05;99235.19;;;11.41;97.34
21086;BME280;34247;50.064;19.970;2023-04-19T04:08:09;99232.97;;;11.35;97.43
21086;BME280;34247;50.064;19.970;2023-04-19T04:09:13;99236.84;;;11.30;98.02
21086;BME280;34247;50.064;19.970;2023-04-19T04:10:17;99239.38;;;11.32;97.88
21086;BME280;34247;50.064;19.970;2023-04-19T04:11:22;99240.00;;;11.36;97.67
21086;BME280;34247;50.064;19.970;2023-04-19T04:12:26;99236.72;;;11.32;97.57
21086;BME280;34247;50.064;19.970;2023-04-19T04:13:30;99235.88;;;11.31;97.41
21086;BME280;34247;50.064;19.970;2023-04-19T04:14:34;99238.41;;;11.33;97.60
21086;BME280;34247;50.064;19.970;2023-04-19T04:15:38;99235.88;;;11.31;97.74
21086;BME280;34247;50.064;19.970;2023-04-19T04:16:42;99240.66;;;11.26;97.79
21086;BME280;34247;50.064;19.970;2023-04-19T04:17:46;99236.06;;;11.28;98.10
21086;BME280;34247;50.064;19.970;2023-04-19T04:18:50;99238.53;;;11.31;97.70
21086;BME280;34247;50.064;19.970;2023-04-19T04:19:55;99234.19;;;11.30;97.55
21086;BME280;34247;50.064;19.970;2023-04-19T04:20:59;99235.88;;;11.31;97.73
21086;BME280;34247;50.064;19.970;2023-04-19T04:22:04;99235.13;;;11.29;97.45
21086;BME280;34247;50.064;19.970;2023-04-19T04:23:08;99243.19;;;11.28;97.85
21086;BME280;34247;50.064;19.970;2023-04-19T04:24:14;99232.44;;;11.29;97.73
21086;BME280;34247;50.064;19.970;2023-04-19T04:25:20;99237.88;;;11.28;97.40
21086;BME280;34247;50.064;19.970;2023-04-19T04:26:28;99233.84;;;11.22;97.79
21086;BME280;34247;50.064;19.970;2023-04-19T04:27:36;99242.22;;;11.29;97.56
21086;BME280;34247;50.064;19.970;2023-04-19T04:28:40;99238.72;;;11.28;97.54
21086;BME280;34247;50.064;19.970;2023-04-19T04:29:43;99241.19;;;11.31;97.63
21086;BME280;34247;50.064;19.970;2023-04-19T04:30:48;99244.56;;;11.33;97.09
21086;BME280;34247;50.064;19.970;2023-04-19T04:31:54;99238.41;;;11.33;97.04
21086;BME280;34247;50.064;19.970;2023-04-19T04:32:59;99234.47;;;11.39;97.03
21086;BME280;34247;50.064;19.970;2023-04-19T04:34:03;99242.22;;;11.42;97.18
21086;BME280;34247;50.064;19.970;2023-04-19T04:35:08;99226.06;;;11.45;96.99
21086;BME280;34247;50.064;19.970;2023-04-19T04:36:16;99230.28;;;11.47;96.63
21086;BME280;34247;50.064;19.970;2023-04-19T04:37:20;99230.28;;;11.47;96.38
21086;BME280;34247;50.064;19.970;2023-04-19T04:38:24;99229.44;;;11.47;96.09
21086;BME280;34247;50.064;19.970;2023-04-19T04:39:29;99230.28;;;11.47;96.45
21086;BME280;34247;50.064;19.970;2023-04-19T04:40:33;99231.13;;;11.48;96.52
21086;BME280;34247;50.064;19.970;2023-04-19T04:41:37;99227.97;;;11.43;96.42
21086;BME280;34247;50.064;19.970;2023-04-19T04:42:44;99232.94;;;11.47;96.42
21086;BME280;34247;50.064;19.970;2023-04-19T04:43:48;99224.56;;;11.41;96.13
21086;BME280;34247;50.064;19.970;2023-04-19T04:45:11;99228.19;;;11.40;96.42
21086;BME280;34247;50.064;19.970;2023-04-19T04:46:18;99222.88;;;11.40;96.15
21086;BME280;34247;50.064;19.970;2023-04-19T04:47:30;99233.72;;;11.37;96.56
21086;BME280;34247;50.064;19.970;2023-04-19T04:48:35;99223.00;;;11.38;96.21
21086;BME280;34247;50.064;19.970;2023-04-19T04:49:39;99218.66;;;11.37;95.85
21086;BME280;34247;50.064;19.970;2023-04-19T04:50:43;99225.53;;;11.40;96.10
21086;BME280;34247;50.064;19.970;2023-04-19T04:51:47;99223.97;;;11.37;96.49
21086;BME280;34247;50.064;19.970;2023-04-19T04:52:51;99222.16;;;11.38;95.84
21086;BME280;34247;50.064;19.970;2023-04-19T04:53:56;99218.13;;;11.32;95.65
21086;BME280;34247;50.064;19.970;2023-04-19T04:54:59;99217.28;;;11.31;96.00
21086;BME280;34247;50.064;19.970;2023-04-19T04:56:03;99213.13;;;11.27;95.66
21086;BME280;34247;50.064;19.970;2023-04-19T04:57:07;99223.75;;;11.27;96.14
21086;BME280;34247;50.064;19.970;2023-04-19T04:58:12;99214.94;;;11.27;96.11
21086;BME280;34247;50.064;19.970;2023-04-19T04:59:16;99221.09;;;11.27;96.00
21086;BME280;34247;50.064;19.970;2023-04-19T05:00:20;99216.75;;;11.26;96.00
21086;BME280;34247;50.064;19.970;2023-04-19T05:01:24;99218.56;;;11.26;96.34
21086;BME280;34247;50.064;19.970;2023-04-19T05:02:27;99210.47;;;11.27;96.42
21086;BME280;34247;50.064;19.970;2023-04-19T05:03:31;99218.84;;;11.34;95.82
21086;BME280;34247;50.064;19.970;2023-04-19T05:04:35;99223.31;;;11.33;95.88
21086;BME280;34247;50.064;19.970;2023-04-19T05:05:39;99220.66;;;11.33;95.78
21086;BME280;34247;50.064;19.970;2023-04-19T05:06:45;99218.84;;;11.34;96.32
21086;BME280;34247;50.064;19.970;2023-04-19T05:07:49;99216.06;;;11.36;95.84
21086;BME280;34247;50.064;19.970;2023-04-19T05:08:53;99211.97;;;11.31;96.16
21086;BME280;34247;50.064;19.970;2023-04-19T05:09:57;99209.50;;;11.28;96.16
21086;BME280;34247;50.064;19.970;2023-04-19T05:11:02;99214.09;;;11.26;96.24
21086;BME280;34247;50.064;19.970;2023-04-19T05:12:06;99213.25;;;11.26;96.00
21086;BME280;34247;50.064;19.970;2023-04-19T05:13:10;99215.91;;;11.26;96.18
21086;BME280;34247;50.064;19.970;2023-04-19T05:14:15;99213.38;;;11.24;96.55
21086;BME280;34247;50.064;19.970;2023-04-19T05:15:19;99211.66;;;11.23;96.83
21086;BME280;34247;50.064;19.970;2023-04-19T05:16:25;99219.41;;;11.26;96.75
21086;BME280;34247;50.064;19.970;2023-04-19T05:17:30;99218.44;;;11.27;96.48
21086;BME280;34247;50.064;19.970;2023-04-19T05:18:34;99219.28;;;11.28;96.53
21086;BME280;34247;50.064;19.970;2023-04-19T05:19:38;99218.16;;;11.19;97.62
21086;BME280;34247;50.064;19.970;2023-04-19T05:20:41;99226.97;;;11.20;97.42
21086;BME280;34247;50.064;19.970;2023-04-19T05:21:47;99229.63;;;11.20;97.73
21086;BME280;34247;50.064;19.970;2023-04-19T05:22:57;99222.91;;;11.27;97.36
21086;BME280;34247;50.064;19.970;2023-04-19T05:24:01;99231.00;;;11.25;97.51
21086;BME280;34247;50.064;19.970;2023-04-19T05:25:05;99224.41;;;11.31;96.96
21086;BME280;34247;50.064;19.970;2023-04-19T05:26:09;99223.75;;;11.27;96.97
21086;BME280;34247;50.064;19.970;2023-04-19T05:27:15;99219.28;;;11.28;97.02
21086;BME280;34247;50.064;19.970;2023-04-19T05:28:19;99227.13;;;11.29;97.44
21086;BME280;34247;50.064;19.970;2023-04-19T05:29:23;99222.47;;;11.33;97.35
21086;BME280;34247;50.064;19.970;2023-04-19T05:30:27;99222.34;;;11.35;96.74
21086;BME280;34247;50.064;19.970;2023-04-19T05:31:31;99220.66;;;11.33;96.74
21086;BME280;34247;50.064;19.970;2023-04-19T05:32:35;99230.97;;;11.38;96.73
21086;BME280;34247;50.064;19.970;2023-04-19T05:33:39;99231.81;;;11.39;96.52
21086;BME280;34247;50.064;19.970;2023-04-19T05:34:43;99227.34;;;11.39;96.72
21086;BME280;34247;50.064;19.970;2023-04-19T05:35:48;99226.69;;;11.36;96.87